createdAt,value
2022-12-08T00:00:16.589Z,1.16
2022-12-08T00:01:16.589Z,1.13
2022-12-08T00:02:16.653Z,1.11
2022-12-08T00:03:16.777Z,1.08
2022-12-08T00:04:16.562Z,1.10
2022-12-08T00:05:16.537Z,1.08
2022-12-08T00:06:16.930Z,1.08
2022-12-08T00:07:16.525Z,1.08
2022-12-08T00:08:16.568Z,1.08
2022-12-08T00:09:16.519Z,1.07
2022-12-08T00:10:47.156Z,1.08
2022-12-08T00:11:17.464Z,1.08
2022-12-08T00:12:16.506Z,1.10
2022-12-08T00:13:16.447Z,1.13
2022-12-08T00:14:16.413Z,1.13
2022-12-08T00:15:16.422Z,1.13
2022-12-08T00:16:16.432Z,1.11
2022-12-08T00:17:16.386Z,1.10
2022-12-08T00:18:16.381Z,1.10
2022-12-08T00:19:16.368Z,1.11
2022-12-08T00:20:16.352Z,1.10
2022-12-08T00:21:16.330Z,1.11
2022-12-08T00:22:16.318Z,1.13
2022-12-08T00:23:16.337Z,1.13
2022-12-08T00:24:16.304Z,1.13
2022-12-08T00:25:16.288Z,1.14
2022-12-08T00:26:16.279Z,1.16
2022-12-08T00:27:16.301Z,1.16
2022-12-08T00:28:16.252Z,1.14
2022-12-08T00:29:17.661Z,1.14
2022-12-08T00:30:16.226Z,1.14
2022-12-08T00:31:16.265Z,1.17
2022-12-08T00:32:16.287Z,1.20
2022-12-08T00:33:16.202Z,1.20
2022-12-08T00:34:16.200Z,1.20
2022-12-08T00:35:16.193Z,1.20
2022-12-08T00:36:16.167Z,1.20
2022-12-08T00:37:16.130Z,1.20
2022-12-08T00:38:16.117Z,1.21
2022-12-08T00:39:16.127Z,1.18
2022-12-08T00:40:16.096Z,1.20
2022-12-08T00:41:16.109Z,1.24
2022-12-08T00:42:16.067Z,1.25
2022-12-08T00:43:16.061Z,1.26
2022-12-08T00:44:16.052Z,1.25
2022-12-08T00:45:16.036Z,1.25
2022-12-08T00:46:16.184Z,1.25
2022-12-08T00:47:19.738Z,1.24
2022-12-08T00:48:17.000Z,1.26
2022-12-08T00:49:15.996Z,1.25
2022-12-08T00:50:15.983Z,1.24
2022-12-08T00:51:15.965Z,1.21
2022-12-08T00:52:15.941Z,1.20
2022-12-08T00:53:15.949Z,1.20
2022-12-08T00:54:15.921Z,1.21
2022-12-08T00:55:15.922Z,1.24
2022-12-08T00:56:15.892Z,1.21
2022-12-08T00:57:15.890Z,1.24
2022-12-08T00:58:15.870Z,1.24
2022-12-08T00:59:15.870Z,1.25
2022-12-08T01:00:15.866Z,1.26
2022-12-08T01:01:15.873Z,1.29
2022-12-08T01:02:15.816Z,1.28
2022-12-08T01:03:15.865Z,1.28
2022-12-08T01:04:15.805Z,1.26
2022-12-08T01:05:15.810Z,1.25
2022-12-08T01:06:15.797Z,1.28
2022-12-08T01:07:15.779Z,1.26
2022-12-08T01:08:15.898Z,1.28
2022-12-08T01:09:15.749Z,1.25
2022-12-08T01:10:15.726Z,1.25
2022-12-08T01:11:15.727Z,1.21
2022-12-08T01:12:15.726Z,1.25
2022-12-08T01:13:15.746Z,1.28
2022-12-08T01:14:15.686Z,1.28
2022-12-08T01:15:15.682Z,1.28
2022-12-08T01:16:15.676Z,1.26
2022-12-08T01:17:15.666Z,1.24
2022-12-08T01:18:15.615Z,1.24
2022-12-08T01:19:15.635Z,1.24
2022-12-08T01:20:15.613Z,1.26
2022-12-08T01:21:15.597Z,1.28
2022-12-08T01:22:15.571Z,1.26
2022-12-08T01:23:15.648Z,1.25
2022-12-08T01:24:15.553Z,1.25
2022-12-08T01:25:15.540Z,1.24
2022-12-08T01:26:15.521Z,1.24
2022-12-08T01:27:15.561Z,1.21
2022-12-08T01:28:15.516Z,1.21
2022-12-08T01:29:15.525Z,1.24
2022-12-08T01:30:22.502Z,1.24
2022-12-08T01:31:15.585Z,1.25
2022-12-08T01:32:15.455Z,1.21
2022-12-08T01:33:15.455Z,1.25
2022-12-08T01:34:15.463Z,1.25
2022-12-08T01:35:15.445Z,1.21
2022-12-08T01:36:15.424Z,1.21
2022-12-08T01:37:15.418Z,1.21
2022-12-08T01:38:15.378Z,1.21
2022-12-08T01:39:15.489Z,1.24
2022-12-08T01:40:15.374Z,1.25
2022-12-08T01:41:15.334Z,1.24
2022-12-08T01:42:15.325Z,1.26
2022-12-08T01:43:15.320Z,1.26
2022-12-08T01:44:15.301Z,1.26
2022-12-08T01:45:15.283Z,1.25
2022-12-08T01:46:15.334Z,1.28
2022-12-08T01:47:15.264Z,1.29
2022-12-08T01:48:15.276Z,1.31
2022-12-08T01:49:15.258Z,1.34
2022-12-08T01:50:15.233Z,1.34
2022-12-08T01:51:15.213Z,1.35
2022-12-08T01:52:15.196Z,1.38
2022-12-08T01:53:15.189Z,1.38
2022-12-08T01:54:15.190Z,1.42
2022-12-08T01:55:15.167Z,1.39
2022-12-08T01:56:15.853Z,1.34
2022-12-08T01:57:16.050Z,1.35
2022-12-08T01:58:15.140Z,1.35
2022-12-08T01:59:15.320Z,1.32
2022-12-08T02:00:15.161Z,1.31
2022-12-08T02:01:15.908Z,1.29
2022-12-08T02:02:15.166Z,1.28
2022-12-08T02:03:15.795Z,1.32
2022-12-08T02:04:15.948Z,1.28
2022-12-08T02:05:15.137Z,1.28
2022-12-08T02:06:15.106Z,1.28
2022-12-08T02:07:15.781Z,1.29
2022-12-08T02:08:15.113Z,1.31
2022-12-08T02:09:15.017Z,1.31
2022-12-08T02:10:15.070Z,1.31
2022-12-08T02:11:15.013Z,1.32
2022-12-08T02:12:16.175Z,1.31
2022-12-08T02:13:15.187Z,1.31
2022-12-08T02:14:14.955Z,1.32
2022-12-08T02:15:14.983Z,1.32
2022-12-08T02:16:14.961Z,1.32
2022-12-08T02:17:14.932Z,1.34
2022-12-08T02:18:14.943Z,1.35
2022-12-08T02:19:31.616Z,1.32
2022-12-08T02:20:15.873Z,1.32
2022-12-08T02:21:14.873Z,1.32
2022-12-08T02:22:14.845Z,1.32
2022-12-08T02:23:14.849Z,1.34
2022-12-08T02:24:14.827Z,1.32
2022-12-08T02:25:14.823Z,1.32
2022-12-08T02:26:14.821Z,1.31
2022-12-08T02:27:14.778Z,1.29
2022-12-08T02:28:14.789Z,1.28
2022-12-08T02:29:14.760Z,1.28
2022-12-08T02:30:14.870Z,1.31
2022-12-08T02:31:14.826Z,1.31
2022-12-08T02:32:14.723Z,1.31
2022-12-08T02:33:14.715Z,1.31
2022-12-08T02:34:14.703Z,1.29
2022-12-08T02:35:14.677Z,1.29
2022-12-08T02:36:14.678Z,1.29
2022-12-08T02:37:14.663Z,1.31
2022-12-08T02:38:14.628Z,1.31
2022-12-08T02:39:14.635Z,1.32
2022-12-08T02:40:14.623Z,1.35
2022-12-08T02:41:14.649Z,1.34
2022-12-08T02:42:14.584Z,1.34
2022-12-08T02:43:14.626Z,1.35
2022-12-08T02:44:14.566Z,1.36
2022-12-08T02:45:14.619Z,1.35
2022-12-08T02:46:14.620Z,1.35
2022-12-08T02:47:14.538Z,1.38
2022-12-08T02:48:14.579Z,1.38
2022-12-08T02:49:14.705Z,1.38
2022-12-08T02:50:14.550Z,1.39
2022-12-08T02:51:14.588Z,1.39
2022-12-08T02:52:14.457Z,1.38
2022-12-08T02:53:45.105Z,1.36
2022-12-08T02:54:45.083Z,1.35
2022-12-08T02:55:45.073Z,1.35
2022-12-08T02:56:45.061Z,1.38
2022-12-08T02:57:45.039Z,1.38
2022-12-08T02:58:45.049Z,1.42
2022-12-08T02:59:45.023Z,1.39
2022-12-08T03:00:45.002Z,1.39
2022-12-08T03:01:45.015Z,1.42
2022-12-08T03:02:45.038Z,1.39
2022-12-08T03:03:44.970Z,1.43
2022-12-08T03:04:44.944Z,1.44
2022-12-08T03:05:44.974Z,1.43
2022-12-08T03:06:44.920Z,1.44
2022-12-08T03:07:44.956Z,1.39
2022-12-08T03:08:44.915Z,1.38
2022-12-08T03:09:44.898Z,1.38
2022-12-08T03:10:44.876Z,1.35
2022-12-08T03:11:44.880Z,1.34
2022-12-08T03:12:44.841Z,1.32
2022-12-08T03:13:44.849Z,1.38
2022-12-08T03:14:44.858Z,1.36
2022-12-08T03:15:44.855Z,1.34
2022-12-08T03:16:44.798Z,1.35
2022-12-08T03:17:44.803Z,1.35
2022-12-08T03:18:44.789Z,1.32
2022-12-08T03:19:44.786Z,1.28
2022-12-08T03:20:44.758Z,1.26
2022-12-08T03:21:44.818Z,1.26
2022-12-08T03:22:44.734Z,1.24
2022-12-08T03:23:44.735Z,1.20
2022-12-08T03:24:44.694Z,1.24
2022-12-08T03:25:44.695Z,1.26
2022-12-08T03:26:44.665Z,1.24
2022-12-08T03:27:44.673Z,1.25
2022-12-08T03:28:44.646Z,1.24
2022-12-08T03:29:44.651Z,1.24
2022-12-08T03:30:44.685Z,1.25
2022-12-08T03:31:44.620Z,1.25
2022-12-08T03:32:44.608Z,1.26
2022-12-08T03:33:44.604Z,1.25
2022-12-08T03:34:44.599Z,1.24
2022-12-08T03:35:44.572Z,1.20
2022-12-08T03:36:44.573Z,1.18
2022-12-08T03:37:44.546Z,1.18
2022-12-08T03:38:44.528Z,1.17
2022-12-08T03:39:44.537Z,1.21
2022-12-08T03:40:44.500Z,1.21
2022-12-08T03:41:44.498Z,1.24
2022-12-08T03:42:44.479Z,1.25
2022-12-08T03:43:44.470Z,1.26
2022-12-08T03:44:44.449Z,1.25
2022-12-08T03:45:44.447Z,1.26
2022-12-08T03:46:44.428Z,1.29
2022-12-08T03:47:44.420Z,1.31
2022-12-08T03:48:44.385Z,1.28
2022-12-08T03:49:44.398Z,1.28
2022-12-08T03:50:44.375Z,1.28
2022-12-08T03:51:44.369Z,1.25
2022-12-08T03:52:44.348Z,1.28
2022-12-08T03:53:44.358Z,1.25
2022-12-08T03:54:44.324Z,1.24
2022-12-08T03:55:44.318Z,1.24
2022-12-08T03:56:44.388Z,1.21
2022-12-08T03:57:44.314Z,1.25
2022-12-08T03:58:44.305Z,1.24
2022-12-08T03:59:44.295Z,1.26
2022-12-08T04:00:44.280Z,1.28
2022-12-08T04:01:44.357Z,1.29
2022-12-08T04:02:44.266Z,1.31
2022-12-08T04:03:44.246Z,1.29
2022-12-08T04:04:44.214Z,1.32
2022-12-08T04:05:44.194Z,1.32
2022-12-08T04:06:44.208Z,1.31
2022-12-08T04:07:44.229Z,1.32
2022-12-08T04:08:44.156Z,1.32
2022-12-08T04:09:44.161Z,1.31
2022-12-08T04:10:44.129Z,1.34
2022-12-08T04:11:44.120Z,1.29
2022-12-08T04:12:44.106Z,1.29
2022-12-08T04:13:44.089Z,1.28
2022-12-08T04:14:44.080Z,1.28
2022-12-08T04:15:44.131Z,1.26
2022-12-08T04:16:44.055Z,1.24
2022-12-08T04:17:44.040Z,1.24
2022-12-08T04:18:44.014Z,1.24
2022-12-08T04:19:44.033Z,1.24
2022-12-08T04:20:43.997Z,1.25
2022-12-08T04:21:43.998Z,1.28
2022-12-08T04:22:43.980Z,1.25
2022-12-08T04:23:43.977Z,1.26
2022-12-08T04:24:43.976Z,1.26
2022-12-08T04:25:43.939Z,1.25
2022-12-08T04:26:43.937Z,1.21
2022-12-08T04:27:43.952Z,1.21
2022-12-08T04:28:43.918Z,1.18
2022-12-08T04:29:43.916Z,1.20
2022-12-08T04:30:43.869Z,1.20
2022-12-08T04:31:43.954Z,1.18
2022-12-08T04:32:47.364Z,1.18
2022-12-08T04:33:43.849Z,1.18
2022-12-08T04:34:43.837Z,1.16
2022-12-08T04:35:43.823Z,1.16
2022-12-08T04:36:43.805Z,1.17
2022-12-08T04:37:43.796Z,1.20
2022-12-08T04:38:43.775Z,1.21
2022-12-08T04:39:43.782Z,1.21
2022-12-08T04:40:43.761Z,1.26
2022-12-08T04:41:43.748Z,1.26
2022-12-08T04:42:43.719Z,1.29
2022-12-08T04:43:43.717Z,1.28
2022-12-08T04:44:43.700Z,1.31
2022-12-08T04:45:43.687Z,1.31
2022-12-08T04:46:44.045Z,1.32
2022-12-08T04:47:43.667Z,1.35
2022-12-08T04:48:43.648Z,1.31
2022-12-08T04:49:43.655Z,1.26
2022-12-08T04:50:43.619Z,1.21
2022-12-08T04:51:43.627Z,1.18
2022-12-08T04:52:43.594Z,1.16
2022-12-08T04:53:46.703Z,1.14
2022-12-08T04:54:44.104Z,1.13
2022-12-08T04:55:43.565Z,1.13
2022-12-08T04:56:43.624Z,1.11
2022-12-08T04:57:43.557Z,1.13
2022-12-08T04:58:43.528Z,1.14
2022-12-08T04:59:43.573Z,1.16
2022-12-08T05:00:43.520Z,1.16
2022-12-08T05:01:43.741Z,1.18
2022-12-08T05:02:43.539Z,1.18
2022-12-08T05:03:43.465Z,1.18
2022-12-08T05:04:43.445Z,1.18
2022-12-08T05:05:43.463Z,1.18
2022-12-08T05:06:43.434Z,1.20
2022-12-08T05:07:43.475Z,1.25
2022-12-08T05:08:43.399Z,1.26
2022-12-08T05:09:43.403Z,1.28
2022-12-08T05:10:43.375Z,1.29
2022-12-08T05:11:48.609Z,1.32
2022-12-08T05:12:44.344Z,1.32
2022-12-08T05:13:43.357Z,1.35
2022-12-08T05:14:43.320Z,1.34
2022-12-08T05:15:43.344Z,1.34
2022-12-08T05:16:43.390Z,1.36
2022-12-08T05:17:43.300Z,1.39
2022-12-08T05:18:43.287Z,1.42
2022-12-08T05:19:43.389Z,1.42
2022-12-08T05:20:43.245Z,1.42
2022-12-08T05:21:43.270Z,1.42
2022-12-08T05:22:43.226Z,1.44
2022-12-08T05:23:43.261Z,1.43
2022-12-08T05:24:47.436Z,1.46
2022-12-08T05:25:43.217Z,1.47
2022-12-08T05:26:43.169Z,1.47
2022-12-08T05:27:43.186Z,1.49
2022-12-08T05:28:43.930Z,1.49
2022-12-08T05:29:43.164Z,1.52
2022-12-08T05:30:43.146Z,1.52
2022-12-08T05:31:43.299Z,1.53
2022-12-08T05:32:43.132Z,1.54
2022-12-08T05:33:43.129Z,1.56
2022-12-08T05:34:43.134Z,1.56
2022-12-08T05:35:43.102Z,1.56
2022-12-08T05:36:43.054Z,1.57
2022-12-08T05:37:43.075Z,1.60
2022-12-08T05:38:43.067Z,1.63
2022-12-08T05:39:43.063Z,1.61
2022-12-08T05:40:43.063Z,1.64
2022-12-08T05:41:43.098Z,1.63
2022-12-08T05:42:43.119Z,1.75
2022-12-08T05:43:43.085Z,2.43
2022-12-08T05:44:43.232Z,2.79
2022-12-08T05:45:43.357Z,2.94
2022-12-08T05:46:43.215Z,2.99
2022-12-08T05:47:43.350Z,3.12
2022-12-08T05:48:43.023Z,2.84
2022-12-08T05:49:42.931Z,2.45
2022-12-08T05:50:42.910Z,2.23
2022-12-08T05:51:43.458Z,2.08
2022-12-08T05:52:43.496Z,2.01
2022-12-08T05:53:43.529Z,1.93
2022-12-08T05:54:44.296Z,1.90
2022-12-08T05:55:43.597Z,1.86
2022-12-08T05:56:42.829Z,1.85
2022-12-08T05:57:43.682Z,1.83
2022-12-08T05:58:43.278Z,1.83
2022-12-08T05:59:42.903Z,1.83
2022-12-08T06:00:42.759Z,1.85
2022-12-08T06:01:42.867Z,1.83
2022-12-08T06:02:42.903Z,1.85
2022-12-08T06:03:42.741Z,1.85
2022-12-08T06:04:42.821Z,1.85
2022-12-08T06:05:42.685Z,1.85
2022-12-08T06:06:42.719Z,1.85
2022-12-08T06:07:42.731Z,1.86
2022-12-08T06:08:42.652Z,1.88
2022-12-08T06:09:42.673Z,1.86
2022-12-08T06:10:42.622Z,1.85
2022-12-08T06:11:42.622Z,1.83
2022-12-08T06:12:42.694Z,1.83
2022-12-08T06:13:42.603Z,1.85
2022-12-08T06:14:42.569Z,1.86
2022-12-08T06:15:43.016Z,1.86
2022-12-08T06:16:42.653Z,2.05
2022-12-08T06:17:42.565Z,2.65
2022-12-08T06:18:42.518Z,3.26
2022-12-08T06:19:42.530Z,3.53
2022-12-08T06:20:42.510Z,3.17
2022-12-08T06:21:42.510Z,2.95
2022-12-08T06:22:42.463Z,2.94
2022-12-08T06:23:42.462Z,3.20
2022-12-08T06:24:42.460Z,3.26
2022-12-08T06:25:42.489Z,3.26
2022-12-08T06:26:42.555Z,3.31
2022-12-08T06:27:42.419Z,3.26
2022-12-08T06:28:42.389Z,3.53
2022-12-08T06:29:42.387Z,3.42
2022-12-08T06:30:42.363Z,3.50
2022-12-08T06:31:42.402Z,3.57
2022-12-08T06:32:42.336Z,3.59
2022-12-08T06:33:42.339Z,3.37
2022-12-08T06:34:42.315Z,3.17
2022-12-08T06:35:42.305Z,3.28
2022-12-08T06:36:42.286Z,3.35
2022-12-08T06:37:42.275Z,3.16
2022-12-08T06:38:43.734Z,3.17
2022-12-08T06:39:42.263Z,3.23
2022-12-08T06:40:42.575Z,3.25
2022-12-08T06:41:42.235Z,3.19
2022-12-08T06:42:42.211Z,3.16
2022-12-08T06:43:42.213Z,3.15
2022-12-08T06:44:42.196Z,3.17
2022-12-08T06:45:42.255Z,3.26
2022-12-08T06:46:42.162Z,3.12
2022-12-08T06:47:42.153Z,3.01
2022-12-08T06:48:42.294Z,2.95
2022-12-08T06:49:42.130Z,3.04
2022-12-08T06:50:42.110Z,2.90
2022-12-08T06:51:42.109Z,2.73
2022-12-08T06:52:51.735Z,2.61
2022-12-08T06:53:44.107Z,2.51
2022-12-08T06:54:42.059Z,2.48
2022-12-08T06:55:58.904Z,2.43
2022-12-08T06:56:43.027Z,2.45
2022-12-08T06:57:42.065Z,2.41
2022-12-08T06:58:43.452Z,2.37
2022-12-08T06:59:42.027Z,2.37
2022-12-08T07:00:42.007Z,2.36
2022-12-08T07:01:42.043Z,2.30
2022-12-08T07:02:41.992Z,2.26
2022-12-08T07:03:41.968Z,2.25
2022-12-08T07:04:41.947Z,2.23
2022-12-08T07:05:41.937Z,2.23
2022-12-08T07:06:41.952Z,2.20
2022-12-08T07:07:43.667Z,2.22
2022-12-08T07:08:41.987Z,2.20
2022-12-08T07:09:41.885Z,2.18
2022-12-08T07:10:43.065Z,2.18
2022-12-08T07:11:41.854Z,2.19
2022-12-08T07:12:41.858Z,2.20
2022-12-08T07:13:41.844Z,2.20
2022-12-08T07:14:41.807Z,2.20
2022-12-08T07:15:41.815Z,2.22
2022-12-08T07:16:41.828Z,2.20
2022-12-08T07:17:41.772Z,2.20
2022-12-08T07:18:41.778Z,2.19
2022-12-08T07:19:41.742Z,2.18
2022-12-08T07:20:41.742Z,2.15
2022-12-08T07:21:41.703Z,2.14
2022-12-08T07:22:41.711Z,2.15
2022-12-08T07:23:41.698Z,2.19
2022-12-08T07:24:41.702Z,2.18
2022-12-08T07:25:41.653Z,2.18
2022-12-08T07:26:41.662Z,2.15
2022-12-08T07:27:41.646Z,2.15
2022-12-08T07:28:41.660Z,2.15
2022-12-08T07:29:41.618Z,2.18
2022-12-08T07:30:41.670Z,2.18
2022-12-08T07:31:41.611Z,2.18
2022-12-08T07:32:41.596Z,2.19
2022-12-08T07:33:41.589Z,2.19
2022-12-08T07:34:41.558Z,2.19
2022-12-08T07:35:46.356Z,2.19
2022-12-08T07:36:42.541Z,2.20
2022-12-08T07:37:41.571Z,2.19
2022-12-08T07:38:41.545Z,2.20
2022-12-08T07:39:41.913Z,2.20
2022-12-08T07:40:41.879Z,2.22
2022-12-08T07:41:41.455Z,2.20
2022-12-08T07:42:41.472Z,2.22
2022-12-08T07:43:41.483Z,2.22
2022-12-08T07:44:41.437Z,2.25
2022-12-08T07:45:41.481Z,2.25
2022-12-08T07:46:41.521Z,2.25
2022-12-08T07:47:42.291Z,2.26
2022-12-08T07:48:41.404Z,2.26
2022-12-08T07:49:41.365Z,2.29
2022-12-08T07:50:41.343Z,2.29
2022-12-08T07:51:41.322Z,2.30
2022-12-08T07:52:41.347Z,2.32
2022-12-08T07:53:42.776Z,2.33
2022-12-08T07:54:41.352Z,2.33
2022-12-08T07:55:41.280Z,2.33
2022-12-08T07:56:41.281Z,2.36
2022-12-08T07:57:41.248Z,2.37
2022-12-08T07:58:41.301Z,2.36
2022-12-08T07:59:41.233Z,2.33
2022-12-08T08:00:41.298Z,2.37
2022-12-08T08:01:45.132Z,2.37
2022-12-08T08:02:41.389Z,2.38
2022-12-08T08:03:41.203Z,2.40
2022-12-08T08:04:41.197Z,2.38
2022-12-08T08:05:41.151Z,2.37
2022-12-08T08:06:41.147Z,2.38
2022-12-08T08:07:41.177Z,2.38
2022-12-08T08:08:41.162Z,2.40
2022-12-08T08:09:41.237Z,2.41
2022-12-08T08:10:41.775Z,2.43
2022-12-08T08:11:41.080Z,2.41
2022-12-08T08:12:41.156Z,2.40
2022-12-08T08:13:41.054Z,2.43
2022-12-08T08:14:41.246Z,2.44
2022-12-08T08:15:41.105Z,2.44
2022-12-08T08:16:41.112Z,2.47
2022-12-08T08:17:41.339Z,2.47
2022-12-08T08:18:41.003Z,2.47
2022-12-08T08:19:41.180Z,2.47
2022-12-08T08:20:41.013Z,2.47
2022-12-08T08:21:45.885Z,2.47
2022-12-08T08:22:41.951Z,2.47
2022-12-08T08:23:40.960Z,2.45
2022-12-08T08:24:44.889Z,2.45
2022-12-08T08:25:40.931Z,2.48
2022-12-08T08:26:41.049Z,2.45
2022-12-08T08:27:40.891Z,2.50
2022-12-08T08:28:42.335Z,2.51
2022-12-08T08:29:41.146Z,2.50
2022-12-08T08:30:40.877Z,2.51
2022-12-08T08:31:40.899Z,2.55
2022-12-08T08:32:40.875Z,2.55
2022-12-08T08:33:40.799Z,2.58
2022-12-08T08:34:40.832Z,2.58
2022-12-08T08:35:40.789Z,2.59
2022-12-08T08:36:40.855Z,2.62
2022-12-08T08:37:44.327Z,2.62
2022-12-08T08:38:41.760Z,2.66
2022-12-08T08:39:40.863Z,2.69
2022-12-08T08:40:40.727Z,2.69
2022-12-08T08:41:40.808Z,2.69
2022-12-08T08:42:40.708Z,2.73
2022-12-08T08:43:40.734Z,2.77
2022-12-08T08:44:41.356Z,2.77
2022-12-08T08:45:40.677Z,2.76
2022-12-08T08:46:40.755Z,2.76
2022-12-08T08:47:40.633Z,2.77
2022-12-08T08:48:40.663Z,2.77
2022-12-08T08:49:40.637Z,2.77
2022-12-08T08:50:40.619Z,2.79
2022-12-08T08:51:40.608Z,2.77
2022-12-08T08:52:40.595Z,2.76
2022-12-08T08:53:40.594Z,2.79
2022-12-08T08:54:40.655Z,2.79
2022-12-08T08:55:40.545Z,2.80
2022-12-08T08:57:57.872Z,2.83
2022-12-08T08:58:57.123Z,2.81
2022-12-08T08:59:57.131Z,2.84
2022-12-08T09:00:57.114Z,2.87
2022-12-08T09:01:57.258Z,2.90
2022-12-08T09:02:57.074Z,2.89
2022-12-08T09:03:57.192Z,2.90
2022-12-08T09:04:57.179Z,2.92
2022-12-08T09:05:57.091Z,2.89
2022-12-08T09:06:57.353Z,2.90
2022-12-08T09:07:57.148Z,2.94
2022-12-08T09:08:57.031Z,2.94
2022-12-08T09:10:01.419Z,2.97
2022-12-08T09:10:57.992Z,2.97
2022-12-08T09:11:56.995Z,2.97
2022-12-08T09:12:56.985Z,2.97
2022-12-08T09:13:57.823Z,2.99
2022-12-08T09:14:56.940Z,2.97
2022-12-08T09:15:57.042Z,2.99
2022-12-08T09:16:58.398Z,2.99
2022-12-08T09:17:56.980Z,3.04
2022-12-08T09:18:56.942Z,3.04
2022-12-08T09:19:57.037Z,3.04
2022-12-08T09:20:56.878Z,3.02
2022-12-08T09:21:56.863Z,3.04
2022-12-08T09:22:56.825Z,3.07
2022-12-08T09:23:57.211Z,3.10
2022-12-08T09:24:56.815Z,3.12
2022-12-08T09:25:56.795Z,3.10
2022-12-08T09:26:57.322Z,3.10
2022-12-08T09:27:56.802Z,3.10
2022-12-08T09:28:57.460Z,3.12
2022-12-08T09:29:57.443Z,3.10
2022-12-08T09:30:56.789Z,3.12
2022-12-08T09:31:57.543Z,3.13
2022-12-08T09:32:57.525Z,3.12
2022-12-08T09:33:57.701Z,3.12
2022-12-08T09:34:56.773Z,3.08
2022-12-08T09:35:56.714Z,3.07
2022-12-08T09:36:57.655Z,3.07
2022-12-08T09:37:56.655Z,3.12
2022-12-08T09:38:56.639Z,3.15
2022-12-08T09:39:58.340Z,3.16
2022-12-08T09:40:57.038Z,3.17
2022-12-08T09:41:56.620Z,3.13
2022-12-08T09:42:57.588Z,3.08
2022-12-08T09:43:56.605Z,3.12
2022-12-08T09:44:56.641Z,3.15
2022-12-08T09:45:56.573Z,3.17
2022-12-08T09:46:57.779Z,3.22
2022-12-08T09:47:56.528Z,3.20
2022-12-08T09:48:56.521Z,3.25
2022-12-08T09:49:58.138Z,3.23
2022-12-08T09:50:56.490Z,3.23
2022-12-08T09:51:56.512Z,3.23
2022-12-08T09:52:57.412Z,3.26
2022-12-08T09:53:56.482Z,3.26
2022-12-08T09:54:56.439Z,3.26
2022-12-08T09:55:56.445Z,3.31
2022-12-08T09:56:56.540Z,3.33
2022-12-08T09:57:57.365Z,3.34
2022-12-08T09:58:56.385Z,3.34
2022-12-08T09:59:57.647Z,3.34
2022-12-08T10:00:56.356Z,3.37
2022-12-08T10:01:56.740Z,3.39
2022-12-08T10:02:57.809Z,3.39
2022-12-08T10:03:56.343Z,3.39
2022-12-08T10:04:56.467Z,3.41
2022-12-08T10:05:56.513Z,3.45
2022-12-08T10:06:56.871Z,3.44
2022-12-08T10:07:56.348Z,3.44
2022-12-08T10:08:57.219Z,3.42
2022-12-08T10:09:56.496Z,3.41
2022-12-08T10:10:56.246Z,3.44
2022-12-08T10:11:57.183Z,3.45
2022-12-08T10:12:56.221Z,3.45
2022-12-08T10:13:56.192Z,3.45
2022-12-08T10:14:56.211Z,3.45
2022-12-08T10:15:57.017Z,3.45
2022-12-08T10:16:56.265Z,3.44
2022-12-08T10:17:56.140Z,3.44
2022-12-08T10:18:57.201Z,3.44
2022-12-08T10:19:56.805Z,3.42
2022-12-08T10:20:56.124Z,3.44
2022-12-08T10:21:56.313Z,3.42
2022-12-08T10:22:57.099Z,3.44
2022-12-08T10:23:56.091Z,3.42
2022-12-08T10:24:56.666Z,3.44
2022-12-08T10:25:56.844Z,3.44
2022-12-08T10:26:56.122Z,3.45
2022-12-08T10:27:56.849Z,3.49
2022-12-08T10:28:57.269Z,3.49
2022-12-08T10:29:57.165Z,3.50
2022-12-08T10:30:57.218Z,3.52
2022-12-08T10:31:55.997Z,3.53
2022-12-08T10:32:55.972Z,3.52
2022-12-08T10:33:55.946Z,3.56
2022-12-08T10:34:56.532Z,3.57
2022-12-08T10:35:56.233Z,3.57
2022-12-08T10:36:55.910Z,3.56
2022-12-08T10:37:55.882Z,3.57
2022-12-08T10:38:55.888Z,3.62
2022-12-08T10:39:55.913Z,3.64
2022-12-08T10:40:55.996Z,3.64
2022-12-08T10:41:55.895Z,3.64
2022-12-08T10:42:56.017Z,3.63
2022-12-08T10:43:55.837Z,3.62
2022-12-08T10:44:55.840Z,3.63
2022-12-08T10:45:56.126Z,3.60
2022-12-08T10:46:56.522Z,3.62
2022-12-08T10:47:55.773Z,3.63
2022-12-08T10:48:55.813Z,3.63
2022-12-08T10:49:55.780Z,3.63
2022-12-08T10:50:55.739Z,3.64
2022-12-08T10:51:55.739Z,3.64
2022-12-08T10:52:57.162Z,3.63
2022-12-08T10:53:55.869Z,3.63
2022-12-08T10:54:55.905Z,3.60
2022-12-08T10:55:56.070Z,3.59
2022-12-08T10:56:57.110Z,3.59
2022-12-08T10:57:55.832Z,3.62
2022-12-08T10:58:56.054Z,3.62
2022-12-08T10:59:55.875Z,3.62
2022-12-08T11:00:55.631Z,3.59
2022-12-08T11:01:56.340Z,3.57
2022-12-08T11:02:56.027Z,3.54
2022-12-08T11:03:56.220Z,3.56
2022-12-08T11:04:56.285Z,3.54
2022-12-08T11:05:56.307Z,3.54
2022-12-08T11:06:55.606Z,3.54
2022-12-08T11:07:56.421Z,3.52
2022-12-08T11:08:56.147Z,3.50
2022-12-08T11:09:56.446Z,3.50
2022-12-08T11:10:56.315Z,3.52
2022-12-08T11:11:56.966Z,3.50
2022-12-08T11:12:55.496Z,3.49
2022-12-08T11:13:55.424Z,3.45
2022-12-08T11:14:55.485Z,3.46
2022-12-08T11:15:55.500Z,3.46
2022-12-08T11:16:55.653Z,3.46
2022-12-08T11:17:57.750Z,3.44
2022-12-08T11:18:55.529Z,3.44
2022-12-08T11:19:55.881Z,3.42
2022-12-08T11:20:55.546Z,3.44
2022-12-08T11:21:55.627Z,3.44
2022-12-08T11:22:55.827Z,3.42
2022-12-08T11:23:56.046Z,3.42
2022-12-08T11:24:55.613Z,3.41
2022-12-08T11:25:56.004Z,3.41
2022-12-08T11:26:55.308Z,3.41
2022-12-08T11:27:55.962Z,3.39
2022-12-08T11:28:55.832Z,3.41
2022-12-08T11:29:55.264Z,3.39
2022-12-08T11:30:55.252Z,3.37
2022-12-08T11:31:55.946Z,3.37
2022-12-08T11:32:55.215Z,3.39
2022-12-08T11:33:55.940Z,3.39
2022-12-08T11:34:55.181Z,3.37
2022-12-08T11:35:56.578Z,3.39
2022-12-08T11:36:55.982Z,3.42
2022-12-08T11:38:07.852Z,3.45
2022-12-08T11:38:56.205Z,3.57
2022-12-08T11:39:55.110Z,3.74
2022-12-08T11:40:56.037Z,3.74
2022-12-08T11:41:55.179Z,3.77
2022-12-08T11:42:55.852Z,3.77
2022-12-08T11:43:55.518Z,3.75
2022-12-08T11:44:55.028Z,3.75
2022-12-08T11:45:55.207Z,3.75
2022-12-08T11:46:55.010Z,3.67
2022-12-08T11:47:56.116Z,3.59
2022-12-08T11:48:54.978Z,3.59
2022-12-08T11:49:54.967Z,3.56
2022-12-08T11:50:54.967Z,3.56
2022-12-08T11:51:54.956Z,3.56
2022-12-08T11:52:54.961Z,3.54
2022-12-08T11:53:54.954Z,3.52
2022-12-08T11:54:55.039Z,3.53
2022-12-08T11:55:55.088Z,3.54
2022-12-08T11:56:56.364Z,3.54
2022-12-08T11:57:55.090Z,3.52
2022-12-08T11:58:54.842Z,3.52
2022-12-08T11:59:55.197Z,3.50
2022-12-08T12:00:55.017Z,3.50
2022-12-08T12:01:54.868Z,3.50
2022-12-08T12:02:55.374Z,3.50
2022-12-08T12:03:55.043Z,3.52
2022-12-08T12:04:54.922Z,3.53
2022-12-08T12:06:18.605Z,3.56
2022-12-08T12:06:56.099Z,3.56
2022-12-08T12:07:55.722Z,3.53
2022-12-08T12:08:55.435Z,3.53
2022-12-08T12:09:54.926Z,3.54
2022-12-08T12:10:55.600Z,3.56
2022-12-08T12:11:54.819Z,3.57
2022-12-08T12:12:54.688Z,3.56
2022-12-08T12:13:54.844Z,3.54
2022-12-08T12:14:55.233Z,3.54
2022-12-08T12:15:55.721Z,3.53
2022-12-08T12:16:54.702Z,3.50
2022-12-08T12:17:54.736Z,3.50
2022-12-08T12:18:54.601Z,3.45
2022-12-08T12:19:54.607Z,3.44
2022-12-08T12:20:54.561Z,3.42
2022-12-08T12:21:54.547Z,3.42
2022-12-08T12:22:54.688Z,3.41
2022-12-08T12:23:54.736Z,3.42
2022-12-08T12:24:54.521Z,3.39
2022-12-08T12:25:54.712Z,3.39
2022-12-08T12:26:54.578Z,3.35
2022-12-08T12:27:57.802Z,3.37
2022-12-08T12:28:54.501Z,3.37
2022-12-08T12:29:56.135Z,3.35
2022-12-08T12:30:54.536Z,3.34
2022-12-08T12:31:54.420Z,3.33
2022-12-08T12:32:54.434Z,3.34
2022-12-08T12:33:54.397Z,3.33
2022-12-08T12:34:54.418Z,3.33
2022-12-08T12:35:54.381Z,3.33
2022-12-08T12:36:54.488Z,3.35
2022-12-08T12:37:54.348Z,3.35
2022-12-08T12:38:54.573Z,3.39
2022-12-08T12:39:54.431Z,3.39
2022-12-08T12:40:54.592Z,3.42
2022-12-08T12:41:54.290Z,3.44
2022-12-08T12:42:54.714Z,3.46
2022-12-08T12:43:54.292Z,3.46
2022-12-08T12:44:55.032Z,3.52
2022-12-08T12:45:54.671Z,3.49
2022-12-08T12:46:54.856Z,3.49
2022-12-08T12:47:56.729Z,3.52
2022-12-08T12:48:55.662Z,3.53
2022-12-08T12:49:54.277Z,3.56
2022-12-08T12:50:54.409Z,3.59
2022-12-08T12:51:54.157Z,3.57
2022-12-08T12:52:54.165Z,3.56
2022-12-08T12:53:54.171Z,3.57
2022-12-08T12:54:54.178Z,3.56
2022-12-08T12:55:54.205Z,3.56
2022-12-08T12:56:54.118Z,3.52
2022-12-08T12:57:54.112Z,3.50
2022-12-08T12:58:54.331Z,3.49
2022-12-08T12:59:55.811Z,3.46
2022-12-08T13:00:54.122Z,3.49
2022-12-08T13:01:54.058Z,3.46
2022-12-08T13:02:54.294Z,3.46
2022-12-08T13:03:54.533Z,3.41
2022-12-08T13:04:54.077Z,3.39
2022-12-08T13:05:53.998Z,3.39
2022-12-08T13:06:54.621Z,3.39
2022-12-08T13:07:54.741Z,3.39
2022-12-08T13:08:54.162Z,3.34
2022-12-08T13:09:54.745Z,3.31
2022-12-08T13:10:54.272Z,3.30
2022-12-08T13:11:54.415Z,3.31
2022-12-08T13:12:53.894Z,3.33
2022-12-08T13:13:53.871Z,3.34
2022-12-08T13:14:53.916Z,3.31
2022-12-08T13:15:53.945Z,3.30
2022-12-08T13:16:54.040Z,3.33
2022-12-08T13:17:54.022Z,3.31
2022-12-08T13:18:54.001Z,3.33
2022-12-08T13:19:54.098Z,3.34